Time;durP1;ratioP1;P1;durP2;ratioP2;P2;SDS_P1;SDS_P2;PMS_P1;PMS_P2;Temp;Humidity;BMP_temperature;BMP_pressure;BME280_temperature;BME280_humidity;BME280_pressure;Samples;Min_cycle;Max_cycle;Signal;HPM_P1;HPM_P2
2024/03/26 00:02:00;;;;;;;;;;;;;;;;;;4993955;28;19976;-70
2024/03/26 00:04:25;;;;;;;;;;;;;;;;;;5013917;28;19925;-69
2024/03/26 00:06:50;;;;;;;;;;;;;;;;;;5012938;28;20474;-69
2024/03/26 00:09:18;;;;;;;;;;;;;;;;;;4991601;28;20249;-68
2024/03/26 00:11:49;;;;;;;;;;;;;;;;;;4994448;28;20372;-69
2024/03/26 00:14:17;;;;;;;;;;;;;;;;;;5007383;28;20015;-69
2024/03/26 00:16:42;;;;;;;;;;;;;;;;;;4975244;28;20361;-69
2024/03/26 00:19:08;;;;;;;;;;;;;;;;;;5012729;28;20012;-69
2024/03/26 00:21:33;;;;;;;;;;;;;;;;;;4992826;28;20300;-69
2024/03/26 00:24:01;;;;;;;;;;;;;;;;;;4996394;28;20290;-71
2024/03/26 00:26:26;;;;;;;;;;;;;;;;;;5013672;28;20008;-69
2024/03/26 00:28:56;;;;;;;;;;;;;;;;;;4990478;28;19917;-70
2024/03/26 00:31:24;;;;;;;;;;;;;;;;;;5005541;28;19956;-69
2024/03/26 00:33:49;;;;;;;;;;;;;;;;;;4998550;28;20385;-71
2024/03/26 00:36:17;;;;;;;;;;;;;;;;;;5002894;28;20525;-69
2024/03/26 00:38:42;;;;;;;;;;;;;;;;;;5016299;28;19930;-69
2024/03/26 00:41:07;;;;;;;;;;;;;;;;;;4999114;28;19921;-69
2024/03/26 00:43:35;;;;;;;;;;;;;;;;;;5017621;28;19921;-69
2024/03/26 00:46:00;;;;;;;;;;;;;;;;;;5014750;28;20487;-70
2024/03/26 00:48:28;;;;;;;;;;;;;;;;;;5016362;28;19944;-69
2024/03/26 00:50:56;;;;;;;;;;;;;;;;;;5016312;28;19925;-69
2024/03/26 00:53:21;;;;;;;;;;;;;;;;;;4999970;28;19928;-69
2024/03/26 00:55:46;;;;;;;;;;;;;;;;;;5016978;28;19963;-69
2024/03/26 00:58:11;;;;;;;;;;;;;;;;;;5016599;28;19921;-69
2024/03/26 01:00:40;;;;;;;;;;;;;;;;;;4994196;28;20023;-69
2024/03/26 01:03:05;;;;;;;;;;;;;;;;;;5003953;28;19917;-70
2024/03/26 01:05:30;;;;;;;;;;;;;;;;;;5008077;28;20020;-70
2024/03/26 01:07:58;;;;;;;;;;;;;;;;;;5016821;28;19917;-69
2024/03/26 01:10:23;;;;;;;;;;;;;;;;;;5009803;28;19928;-69
2024/03/26 01:12:51;;;;;;;;;;;;;;;;;;5013306;28;19921;-69
2024/03/26 01:15:18;;;;;;;;;;;;;;;;;;4997658;28;20304;-72
2024/03/26 01:17:44;;;;;;;;;;;;;;;;;;4996807;28;19927;-70
2024/03/26 01:20:12;;;;;;;;;;;;;;;;;;4994569;28;19940;-69
2024/03/26 01:22:39;;;;;;;;;;;;;;;;;;5014269;28;19921;-70
2024/03/26 01:25:07;;;;;;;;;;;;;;;;;;4996322;28;20376;-69
2024/03/26 01:27:35;;;;;;;;;;;;;;;;;;5007391;28;19945;-69
2024/03/26 01:30:00;;;;;;;;;;;;;;;;;;4995908;28;19917;-69
2024/03/26 01:32:28;;;;;;;;;;;;;;;;;;4997968;28;19956;-70
2024/03/26 01:34:53;;;;;;;;;;;;;;;;;;5015279;28;19921;-70
2024/03/26 01:37:23;;;;;;;;;;;;;;;;;;4996894;28;19921;-69
2024/03/26 01:39:51;;;;;;;;;;;;;;;;;;5014542;28;19921;-69
2024/03/26 01:42:17;;;;;;;;;;;;;;;;;;5000081;28;19928;-69
2024/03/26 01:44:42;;;;;;;;;;;;;;;;;;4979208;28;20088;-70
2024/03/26 01:47:07;;;;;;;;;;;;;;;;;;5015064;28;19917;-69
2024/03/26 01:49:32;;;;;;;;;;;;;;;;;;5014604;28;19943;-70
2024/03/26 01:51:58;;;;;;;;;;;;;;;;;;5002560;28;19927;-69
2024/03/26 01:54:25;;;;;;;;;;;;;;;;;;5015696;28;19924;-69
2024/03/26 01:56:53;;;;;;;;;;;;;;;;;;5014019;28;19965;-69
2024/03/26 01:59:18;;;;;;;;;;;;;;;;;;4993239;28;20079;-68
2024/03/26 02:01:47;;;;;;;;;;;;;;;;;;5012387;28;20067;-71
2024/03/26 02:04:14;;;;;;;;;;;;;;;;;;5008240;28;19917;-69
2024/03/26 02:06:40;;;;;;;;;;;;;;;;;;4993593;28;19925;-70
2024/03/26 02:09:07;;;;;;;;;;;;;;;;;;4996306;28;20304;-70
2024/03/26 02:11:33;;;;;;;;;;;;;;;;;;4993342;28;19917;-69
2024/03/26 02:14:03;;;;;;;;;;;;;;;;;;4995679;28;19932;-69
2024/03/26 02:16:31;;;;;;;;;;;;;;;;;;4998050;28;20141;-70
2024/03/26 02:18:56;;;;;;;;;;;;;;;;;;5016081;28;19939;-68
2024/03/26 02:21:24;;;;;;;;;;;;;;;;;;4997801;28;19921;-68
2024/03/26 02:23:52;;;;;;;;;;;;;;;;;;4997658;28;20536;-68
2024/03/26 02:26:18;;;;;;;;;;;;;;;;;;4979420;28;19982;-70
2024/03/26 02:28:43;;;;;;;;;;;;;;;;;;4994492;28;19952;-69
2024/03/26 02:31:08;;;;;;;;;;;;;;;;;;4998232;28;19960;-69
2024/03/26 02:33:33;;;;;;;;;;;;;;;;;;4988247;28;19944;-69
2024/03/26 02:36:04;;;;;;;;;;;;;;;;;;4995192;28;20258;-70
2024/03/26 02:38:29;;;;;;;;;;;;;;;;;;4994676;28;19917;-68
2024/03/26 02:40:55;;;;;;;;;;;;;;;;;;4986955;28;19987;-70
2024/03/26 02:43:20;;;;;;;;;;;;;;;;;;4978226;28;19940;-70
2024/03/26 02:45:49;;;;;;;;;;;;;;;;;;5000110;28;19917;-70
2024/03/26 02:48:16;;;;;;;;;;;;;;;;;;4998196;28;19921;-70
2024/03/26 02:50:41;;;;;;;;;;;;;;;;;;4974724;28;19963;-69
2024/03/26 02:53:07;;;;;;;;;;;;;;;;;;5001092;28;19972;-69
2024/03/26 02:55:32;;;;;;;;;;;;;;;;;;4994304;28;19925;-71
2024/03/26 02:58:00;;;;;;;;;;;;;;;;;;4995069;28;19983;-70
2024/03/26 03:00:29;;;;;;;;;;;;;;;;;;4995593;28;19932;-70
2024/03/26 03:02:54;;;;;;;;;;;;;;;;;;4990341;28;20466;-70
2024/03/26 03:05:19;;;;;;;;;;;;;;;;;;5001132;28;19958;-71
2024/03/26 03:07:45;;;;;;;;;;;;;;;;;;4976982;28;20621;-70
2024/03/26 03:10:10;;;;;;;;;;;;;;;;;;4998260;28;19916;-70
2024/03/26 03:12:35;;;;;;;;;;;;;;;;;;5011647;28;19995;-69
2024/03/26 03:15:00;;;;;;;;;;;;;;;;;;4975610;28;20364;-69
2024/03/26 03:17:31;;;;;;;;;;;;;;;;;;4990479;28;19927;-69
2024/03/26 03:19:56;;;;;;;;;;;;;;;;;;4986139;28;19948;-69
2024/03/26 03:22:21;;;;;;;;;;;;;;;;;;4993061;28;19921;-72
2024/03/26 03:24:52;;;;;;;;;;;;;;;;;;5014091;28;20000;-71
2024/03/26 03:27:18;;;;;;;;;;;;;;;;;;5012956;28;19923;-71
2024/03/26 03:29:46;;;;;;;;;;;;;;;;;;5008161;28;19921;-71
2024/03/26 03:32:14;;;;;;;;;;;;;;;;;;4990221;28;20433;-70
2024/03/26 03:34:45;;;;;;;;;;;;;;;;;;5014337;28;19955;-69
2024/03/26 03:37:13;;;;;;;;;;;;;;;;;;4996127;28;19947;-70
2024/03/26 03:39:40;;;;;;;;;;;;;;;;;;4997735;28;20376;-69
2024/03/26 03:42:06;;;;;;;;;;;;;;;;;;5012903;28;19921;-70
2024/03/26 03:44:35;;;;;;;;;;;;;;;;;;5013564;28;20288;-72
2024/03/26 03:47:03;;;;;;;;;;;;;;;;;;5006933;28;20356;-70
2024/03/26 03:49:33;;;;;;;;;;;;;;;;;;4996723;28;19921;-70
2024/03/26 03:52:03;;;;;;;;;;;;;;;;;;4992763;28;19924;-72
2024/03/26 03:54:28;;;;;;;;;;;;;;;;;;5007589;28;19917;-70
2024/03/26 03:56:56;;;;;;;;;;;;;;;;;;5004573;28;19921;-71
2024/03/26 03:59:21;;;;;;;;;;;;;;;;;;4989634;28;21001;-70
2024/03/26 04:01:52;;;;;;;;;;;;;;;;;;5013843;28;19917;-70
2024/03/26 04:04:19;;;;;;;;;;;;;;;;;;4990648;28;19921;-70
2024/03/26 04:06:45;;;;;;;;;;;;;;;;;;5012252;28;20007;-71
2024/03/26 04:09:10;;;;;;;;;;;;;;;;;;5013418;28;20005;-70
2024/03/26 04:11:37;;;;;;;;;;;;;;;;;;5017476;28;19917;-71
2024/03/26 04:14:07;;;;;;;;;;;;;;;;;;5016786;28;19955;-70
2024/03/26 04:16:33;;;;;;;;;;;;;;;;;;5018431;28;20415;-70
2024/03/26 04:19:00;;;;;;;;;;;;;;;;;;5017677;28;20000;-70
2024/03/26 04:21:28;;;;;;;;;;;;;;;;;;5015970;28;19917;-70
2024/03/26 04:23:53;;;;;;;;;;;;;;;;;;4994726;28;19963;-69
2024/03/26 04:26:18;;;;;;;;;;;;;;;;;;4985851;28;19925;-71
2024/03/26 04:28:48;;;;;;;;;;;;;;;;;;5016694;28;19917;-70
2024/03/26 04:31:14;;;;;;;;;;;;;;;;;;5008731;28;19916;-70
2024/03/26 04:33:39;;;;;;;;;;;;;;;;;;4999515;28;19928;-69
2024/03/26 04:36:07;;;;;;;;;;;;;;;;;;5014445;28;19929;-70
2024/03/26 04:38:33;;;;;;;;;;;;;;;;;;5017525;28;20392;-72
2024/03/26 04:41:02;;;;;;;;;;;;;;;;;;5016683;28;20446;-71
2024/03/26 04:43:28;;;;;;;;;;;;;;;;;;5016382;28;19920;-70
2024/03/26 04:45:53;;;;;;;;;;;;;;;;;;5013996;28;20296;-70
2024/03/26 04:48:20;;;;;;;;;;;;;;;;;;5018089;28;19921;-72
2024/03/26 04:50:45;;;;;;;;;;;;;;;;;;5000299;28;20213;-69
2024/03/26 04:53:11;;;;;;;;;;;;;;;;;;5016838;28;20323;-69
2024/03/26 04:55:38;;;;;;;;;;;;;;;;;;5017672;28;20199;-69
2024/03/26 04:58:06;;;;;;;;;;;;;;;;;;4997355;28;20023;-71
2024/03/26 05:00:32;;;;;;;;;;;;;;;;;;4997137;28;19924;-69
2024/03/26 05:03:00;;;;;;;;;;;;;;;;;;4998741;28;19925;-69
2024/03/26 05:05:25;;;;;;;;;;;;;;;;;;4980074;28;19993;-70
2024/03/26 05:07:52;;;;;;;;;;;;;;;;;;4998260;28;19917;-70
2024/03/26 05:10:18;;;;;;;;;;;;;;;;;;4991636;28;19921;-69
2024/03/26 05:12:48;;;;;;;;;;;;;;;;;;4996868;28;19928;-68
2024/03/26 05:15:15;;;;;;;;;;;;;;;;;;4987366;28;20143;-69
2024/03/26 05:17:41;;;;;;;;;;;;;;;;;;4996689;28;20334;-70
2024/03/26 05:20:09;;;;;;;;;;;;;;;;;;5016524;28;19943;-69
2024/03/26 05:22:34;;;;;;;;;;;;;;;;;;5014708;28;20421;-71
2024/03/26 05:24:59;;;;;;;;;;;;;;;;;;5016869;28;19914;-69
2024/03/26 05:27:24;;;;;;;;;;;;;;;;;;4996966;28;20008;-69
2024/03/26 05:29:53;;;;;;;;;;;;;;;;;;4977545;28;20027;-69
2024/03/26 05:32:23;;;;;;;;;;;;;;;;;;5004685;28;19924;-70
2024/03/26 05:34:51;;;;;;;;;;;;;;;;;;5015613;28;19925;-71
2024/03/26 05:40:33;;;;;;;;;;;;;;;;;;5016902;28;20407;-69
2024/03/26 05:43:02;;;;;;;;;;;;;;;;;;5017459;28;19924;-69
2024/03/26 05:48:20;;;;;;;;;;;;;;;;;;5014219;28;20340;-69
2024/03/26 05:50:48;;;;;;;;;;;;;;;;;;4997233;28;19921;-71
2024/03/26 05:53:13;;;;;;;;;;;;;;;;;;5002540;28;19921;-70
2024/03/26 05:55:38;;;;;;;;;;;;;;;;;;4996741;28;20479;-71
2024/03/26 05:58:04;;;;;;;;;;;;;;;;;;4996490;28;19964;-68
2024/03/26 06:00:29;;;;;;;;;;;;;;;;;;4993881;28;20008;-69
2024/03/26 06:02:55;;;;;;;;;;;;;;;;;;5016225;28;19960;-68
2024/03/26 06:05:20;;;;;;;;;;;;;;;;;;4994509;28;20423;-69
2024/03/26 06:07:45;;;;;;;;;;;;;;;;;;4979127;28;20514;-69
2024/03/26 06:10:10;;;;;;;;;;;;;;;;;;5016738;28;19948;-70
2024/03/26 06:12:41;;;;;;;;;;;;;;;;;;5002706;28;20474;-69
2024/03/26 06:15:06;;;;;;;;;;;;;;;;;;4997886;28;19925;-70
2024/03/26 06:17:31;;;;;;;;;;;;;;;;;;4995854;28;20176;-69
2024/03/26 06:19:59;;;;;;;;;;;;;;;;;;4998722;28;19917;-69
2024/03/26 06:22:24;;;;;;;;;;;;;;;;;;5002935;28;19929;-68
2024/03/26 06:24:49;;;;;;;;;;;;;;;;;;5000997;28;20289;-71
2024/03/26 06:27:15;;;;;;;;;;;;;;;;;;5016322;28;19968;-69
2024/03/26 06:29:42;;;;;;;;;;;;;;;;;;4994997;28;20405;-69
2024/03/26 06:32:08;;;;;;;;;;;;;;;;;;5009405;28;20020;-68
2024/03/26 06:34:33;;;;;;;;;;;;;;;;;;4996701;28;20621;-68
2024/03/26 06:36:58;;;;;;;;;;;;;;;;;;4977694;28;19921;-70
2024/03/26 06:39:26;;;;;;;;;;;;;;;;;;4992693;28;19917;-69
2024/03/26 06:41:52;;;;;;;;;;;;;;;;;;5013909;28;19944;-68
2024/03/26 06:44:17;;;;;;;;;;;;;;;;;;5015293;28;19917;-69
2024/03/26 06:46:42;;;;;;;;;;;;;;;;;;5005989;28;20653;-69
2024/03/26 06:49:08;;;;;;;;;;;;;;;;;;5012742;28;19917;-70
2024/03/26 06:51:33;;;;;;;;;;;;;;;;;;4995666;28;19917;-69
2024/03/26 06:53:58;;;;;;;;;;;;;;;;;;5015181;28;20014;-68
2024/03/26 06:56:26;;;;;;;;;;;;;;;;;;4997290;28;19960;-68
2024/03/26 06:58:52;;;;;;;;;;;;;;;;;;4995053;28;20460;-69
2024/03/26 07:01:20;;;;;;;;;;;;;;;;;;4995579;28;21566;-69
2024/03/26 07:03:46;;;;;;;;;;;;;;;;;;5015253;28;19921;-69
2024/03/26 07:06:11;;;;;;;;;;;;;;;;;;4995009;28;19922;-69
2024/03/26 07:08:36;;;;;;;;;;;;;;;;;;5008786;28;20018;-69
2024/03/26 07:11:02;;;;;;;;;;;;;;;;;;4978449;28;19928;-69
2024/03/26 07:13:27;;;;;;;;;;;;;;;;;;4980458;28;20075;-69
2024/03/26 07:15:57;;;;;;;;;;;;;;;;;;5011111;28;19928;-69
2024/03/26 07:18:23;;;;;;;;;;;;;;;;;;5015235;28;19921;-69
2024/03/26 07:20:48;;;;;;;;;;;;;;;;;;5014753;28;19921;-70
2024/03/26 07:23:14;;;;;;;;;;;;;;;;;;5015330;28;19921;-69
2024/03/26 07:25:39;;;;;;;;;;;;;;;;;;5014310;28;19921;-69
2024/03/26 07:28:07;;;;;;;;;;;;;;;;;;5014186;28;20191;-68
2024/03/26 07:30:33;;;;;;;;;;;;;;;;;;5011634;28;19921;-70
2024/03/26 07:32:58;;;;;;;;;;;;;;;;;;4986408;28;19921;-68
2024/03/26 07:35:23;;;;;;;;;;;;;;;;;;5014644;28;20281;-69
2024/03/26 07:37:51;;;;;;;;;;;;;;;;;;5000792;28;20467;-68
2024/03/26 07:40:17;;;;;;;;;;;;;;;;;;4993060;28;19996;-69
2024/03/26 07:42:44;;;;;;;;;;;;;;;;;;4980712;28;19921;-69
2024/03/26 07:45:10;;;;;;;;;;;;;;;;;;5011024;28;20014;-69
2024/03/26 07:47:35;;;;;;;;;;;;;;;;;;5006665;28;20000;-71
2024/03/26 07:50:03;;;;;;;;;;;;;;;;;;5012862;28;19921;-71
2024/03/26 07:52:28;;;;;;;;;;;;;;;;;;5015549;28;20387;-70
2024/03/26 07:54:55;;;;;;;;;;;;;;;;;;5013801;28;19921;-69
2024/03/26 07:57:21;;;;;;;;;;;;;;;;;;4991564;28;20269;-68
2024/03/26 07:59:46;;;;;;;;;;;;;;;;;;4995693;28;20035;-69
2024/03/26 08:02:14;;;;;;;;;;;;;;;;;;5006997;28;19925;-71
2024/03/26 08:04:42;;;;;;;;;;;;;;;;;;4993314;28;20297;-70
2024/03/26 08:07:10;;;;;;;;;;;;;;;;;;4978388;28;19917;-70
2024/03/26 08:09:35;;;;;;;;;;;;;;;;;;4993844;28;19925;-71
2024/03/26 08:12:03;;;;;;;;;;;;;;;;;;4996972;28;19917;-70
2024/03/26 08:14:29;;;;;;;;;;;;;;;;;;5006181;28;20355;-68
2024/03/26 08:16:54;;;;;;;;;;;;;;;;;;5013734;28;20862;-71
2024/03/26 08:19:21;;;;;;;;;;;;;;;;;;5006043;28;20377;-68
2024/03/26 08:21:47;;;;;;;;;;;;;;;;;;4995524;28;19921;-69
2024/03/26 08:24:15;;;;;;;;;;;;;;;;;;4996701;28;19943;-70
2024/03/26 08:26:43;;;;;;;;;;;;;;;;;;4996307;28;19976;-73
2024/03/26 08:29:09;;;;;;;;;;;;;;;;;;4990598;28;21970;-70
2024/03/26 08:31:34;;;;;;;;;;;;;;;;;;5013021;28;21673;-69
2024/03/26 08:33:59;;;;;;;;;;;;;;;;;;5013406;28;19944;-70
2024/03/26 08:36:27;;;;;;;;;;;;;;;;;;5000669;28;20015;-68
2024/03/26 08:38:55;;;;;;;;;;;;;;;;;;4978850;28;19917;-69
2024/03/26 08:41:22;;;;;;;;;;;;;;;;;;4995173;28;19921;-69
2024/03/26 08:43:50;;;;;;;;;;;;;;;;;;5013337;28;20557;-69
2024/03/26 08:46:16;;;;;;;;;;;;;;;;;;5012581;28;19925;-69
2024/03/26 08:48:43;;;;;;;;;;;;;;;;;;5000488;28;20004;-68
2024/03/26 08:51:08;;;;;;;;;;;;;;;;;;4993293;28;19939;-69
2024/03/26 08:53:35;;;;;;;;;;;;;;;;;;5014532;28;19913;-68
2024/03/26 08:56:04;;;;;;;;;;;;;;;;;;5013318;28;19968;-69
2024/03/26 08:58:29;;;;;;;;;;;;;;;;;;5018311;28;19925;-68
2024/03/26 09:00:55;;;;;;;;;;;;;;;;;;4982977;28;19917;-68
2024/03/26 09:03:22;;;;;;;;;;;;;;;;;;5001560;28;21031;-70
2024/03/26 09:05:51;;;;;;;;;;;;;;;;;;4987650;28;19921;-68
2024/03/26 09:08:16;;;;;;;;;;;;;;;;;;4993711;28;19928;-70
2024/03/26 09:10:41;;;;;;;;;;;;;;;;;;5016155;28;19928;-68
2024/03/26 09:13:09;;;;;;;;;;;;;;;;;;5017150;28;19961;-69
2024/03/26 09:15:34;;;;;;;;;;;;;;;;;;5015889;28;19948;-67
2024/03/26 09:18:00;;;;;;;;;;;;;;;;;;5003272;28;20364;-67
2024/03/26 09:20:25;;;;;;;;;;;;;;;;;;4994351;28;19963;-69
2024/03/26 09:22:51;;;;;;;;;;;;;;;;;;5015741;28;20364;-69
2024/03/26 09:25:18;;;;;;;;;;;;;;;;;;5017009;28;19983;-69
2024/03/26 09:27:43;;;;;;;;;;;;;;;;;;5007971;28;19917;-70
2024/03/26 09:30:10;;;;;;;;;;;;;;;;;;5015382;28;19928;-69
2024/03/26 09:32:36;;;;;;;;;;;;;;;;;;5015256;28;19921;-69
2024/03/26 09:35:01;;;;;;;;;;;;;;;;;;4995902;28;19927;-69
2024/03/26 09:37:29;;;;;;;;;;;;;;;;;;4996956;28;19947;-68
2024/03/26 09:39:54;;;;;;;;;;;;;;;;;;5015939;28;19921;-70
2024/03/26 09:42:22;;;;;;;;;;;;;;;;;;5001527;28;20024;-69
2024/03/26 09:44:47;;;;;;;;;;;;;;;;;;5015438;28;19917;-69
2024/03/26 09:47:19;;;;;;;;;;;;;;;;;;5014906;28;20591;-69
2024/03/26 09:49:44;;;;;;;;;;;;;;;;;;4996792;28;20530;-70
2024/03/26 09:52:10;;;;;;;;;;;;;;;;;;5016331;28;20007;-70
2024/03/26 09:54:35;;;;;;;;;;;;;;;;;;5014007;28;20923;-70
2024/03/26 09:57:00;;;;;;;;;;;;;;;;;;5014643;28;19925;-68
2024/03/26 09:59:28;;;;;;;;;;;;;;;;;;5013285;28;19917;-68
2024/03/26 10:01:53;;;;;;;;;;;;;;;;;;5017086;28;19999;-68
2024/03/26 10:04:21;;;;;;;;;;;;;;;;;;5015535;28;21590;-69
2024/03/26 10:06:49;;;;;;;;;;;;;;;;;;4999399;28;20016;-66
2024/03/26 10:09:15;;;;;;;;;;;;;;;;;;5011460;28;19928;-70
2024/03/26 10:11:41;;;;;;;;;;;;;;;;;;4998670;28;19975;-69
2024/03/26 10:14:08;;;;;;;;;;;;;;;;;;4995924;28;19921;-67
2024/03/26 10:16:37;;;;;;;;;;;;;;;;;;5013622;28;20061;-70
2024/03/26 10:19:02;;;;;;;;;;;;;;;;;;5013009;28;20012;-69
2024/03/26 10:21:27;;;;;;;;;;;;;;;;;;4996383;28;19916;-70
2024/03/26 10:23:53;;;;;;;;;;;;;;;;;;4996090;28;20355;-69
2024/03/26 10:26:19;;;;;;;;;;;;;;;;;;5015333;28;19972;-68
2024/03/26 10:28:47;;;;;;;;;;;;;;;;;;4998153;28;19917;-69
2024/03/26 10:31:12;;;;;;;;;;;;;;;;;;5014352;28;20356;-68
2024/03/26 10:33:38;;;;;;;;;;;;;;;;;;5014133;28;19925;-69
2024/03/26 10:36:03;;;;;;;;;;;;;;;;;;5013268;28;20349;-68
2024/03/26 10:38:28;;;;;;;;;;;;;;;;;;5001793;28;19971;-69
2024/03/26 10:40:56;;;;;;;;;;;;;;;;;;4977559;28;20929;-69
2024/03/26 10:43:24;;;;;;;;;;;;;;;;;;5010348;28;19924;-69
2024/03/26 10:45:54;;;;;;;;;;;;;;;;;;5013044;28;19936;-70
2024/03/26 10:51:38;;;;;;;;;;;;;;;;;;5016557;28;19927;-69
2024/03/26 10:54:04;;;;;;;;;;;;;;;;;;4992499;28;20072;-69
2024/03/26 10:56:29;;;;;;;;;;;;;;;;;;5015843;28;19921;-69
2024/03/26 10:58:54;;;;;;;;;;;;;;;;;;5013771;28;20015;-69
2024/03/26 11:01:19;;;;;;;;;;;;;;;;;;5014189;28;20066;-70
2024/03/26 11:03:47;;;;;;;;;;;;;;;;;;4994061;28;20323;-69
2024/03/26 11:06:12;;;;;;;;;;;;;;;;;;4992400;28;20014;-69
2024/03/26 11:08:38;;;;;;;;;;;;;;;;;;5010103;28;20435;-68
2024/03/26 11:11:06;;;;;;;;;;;;;;;;;;5011900;28;19963;-69
2024/03/26 11:13:34;;;;;;;;;;;;;;;;;;4993232;28;20775;-69
2024/03/26 11:16:02;;;;;;;;;;;;;;;;;;5010848;28;20197;-69
2024/03/26 11:18:30;;;;;;;;;;;;;;;;;;5015233;28;19944;-69
2024/03/26 11:20:55;;;;;;;;;;;;;;;;;;4999111;28;19924;-69
2024/03/26 11:23:20;;;;;;;;;;;;;;;;;;5015321;28;19921;-70
2024/03/26 11:25:49;;;;;;;;;;;;;;;;;;4995725;28;19924;-70
2024/03/26 11:28:14;;;;;;;;;;;;;;;;;;4996743;28;19917;-69
2024/03/26 11:30:42;;;;;;;;;;;;;;;;;;5013548;28;19917;-69
2024/03/26 11:33:10;;;;;;;;;;;;;;;;;;5013017;28;21441;-69
2024/03/26 11:35:35;;;;;;;;;;;;;;;;;;4997327;28;20442;-71
2024/03/26 11:38:03;;;;;;;;;;;;;;;;;;5013912;28;19921;-69
2024/03/26 11:40:31;;;;;;;;;;;;;;;;;;4992534;28;19921;-68
2024/03/26 11:42:56;;;;;;;;;;;;;;;;;;4976402;28;19921;-70
2024/03/26 11:45:22;;;;;;;;;;;;;;;;;;5012996;28;19925;-69
2024/03/26 11:47:49;;;;;;;;;;;;;;;;;;5014732;28;20106;-69
2024/03/26 11:50:15;;;;;;;;;;;;;;;;;;5014419;28;19921;-71
2024/03/26 11:52:42;;;;;;;;;;;;;;;;;;5013764;28;20000;-70
2024/03/26 11:55:08;;;;;;;;;;;;;;;;;;5010020;28;20482;-71
2024/03/26 11:57:35;;;;;;;;;;;;;;;;;;5012268;28;19937;-71
2024/03/26 12:00:04;;;;;;;;;;;;;;;;;;5012889;28;20016;-70
2024/03/26 12:02:30;;;;;;;;;;;;;;;;;;5006489;28;19917;-70
2024/03/26 12:04:56;;;;;;;;;;;;;;;;;;5015291;28;20544;-71
2024/03/26 12:07:23;;;;;;;;;;;;;;;;;;5013681;28;19940;-69
2024/03/26 12:09:49;;;;;;;;;;;;;;;;;;4994503;28;20376;-70
2024/03/26 12:12:14;;;;;;;;;;;;;;;;;;4996575;28;20016;-71
2024/03/26 12:14:42;;;;;;;;;;;;;;;;;;4995238;28;20349;-70
2024/03/26 12:17:10;;;;;;;;;;;;;;;;;;4996311;28;21526;-70
2024/03/26 12:19:38;;;;;;;;;;;;;;;;;;4999253;28;19925;-68
2024/03/26 12:22:06;;;;;;;;;;;;;;;;;;4981109;28;19924;-72
2024/03/26 12:24:31;;;;;;;;;;;;;;;;;;4994904;28;19917;-71
2024/03/26 12:26:59;;;;;;;;;;;;;;;;;;5014281;28;19917;-72
2024/03/26 12:29:26;;;;;;;;;;;;;;;;;;5013069;28;19917;-71
2024/03/26 12:31:54;;;;;;;;;;;;;;;;;;5010229;28;20359;-71
2024/03/26 12:34:22;;;;;;;;;;;;;;;;;;5016156;28;19935;-74
2024/03/26 12:36:48;;;;;;;;;;;;;;;;;;5018198;28;19936;-72
2024/03/26 12:39:14;;;;;;;;;;;;;;;;;;5017437;28;20224;-72
2024/03/26 12:41:39;;;;;;;;;;;;;;;;;;5018499;28;20278;-71
2024/03/26 12:44:05;;;;;;;;;;;;;;;;;;5017164;28;20000;-71
2024/03/26 12:46:30;;;;;;;;;;;;;;;;;;5017735;28;20059;-72
2024/03/26 12:48:55;;;;;;;;;;;;;;;;;;5004398;28;21388;-72
2024/03/26 12:51:23;;;;;;;;;;;;;;;;;;5012902;28;20181;-72
2024/03/26 12:53:48;;;;;;;;;;;;;;;;;;4999433;28;19998;-72
2024/03/26 12:56:16;;;;;;;;;;;;;;;;;;5018489;28;19964;-72
2024/03/26 12:58:41;;;;;;;;;;;;;;;;;;5017962;28;21940;-68
2024/03/26 13:01:06;;;;;;;;;;;;;;;;;;5013326;28;19924;-70
2024/03/26 13:03:32;;;;;;;;;;;;;;;;;;4998251;28;20464;-72
2024/03/26 13:05:57;;;;;;;;;;;;;;;;;;4993289;28;19921;-72
2024/03/26 13:08:22;;;;;;;;;;;;;;;;;;5018705;28;19920;-74
2024/03/26 13:10:48;;;;;;;;;;;;;;;;;;4999680;28;19924;-71
2024/03/26 13:13:13;;;;;;;;;;;;;;;;;;4995837;28;19987;-70
2024/03/26 13:15:43;;;;;;;;;;;;;;;;;;5015941;28;19925;-73
2024/03/26 13:18:09;;;;;;;;;;;;;;;;;;4996509;28;19975;-72
2024/03/26 13:20:40;;;;;;;;;;;;;;;;;;4998229;28;19921;-72
2024/03/26 13:23:08;;;;;;;;;;;;;;;;;;5016169;28;19928;-74
2024/03/26 13:25:36;;;;;;;;;;;;;;;;;;4998194;28;19920;-73
2024/03/26 13:28:03;;;;;;;;;;;;;;;;;;4999061;28;19925;-73
2024/03/26 13:30:29;;;;;;;;;;;;;;;;;;5003217;28;19963;-72
2024/03/26 13:32:59;;;;;;;;;;;;;;;;;;4996905;28;19921;-71
2024/03/26 13:35:26;;;;;;;;;;;;;;;;;;5016230;28;21746;-73
2024/03/26 13:37:52;;;;;;;;;;;;;;;;;;4997991;28;19921;-73
2024/03/26 13:40:17;;;;;;;;;;;;;;;;;;5016759;28;19921;-73
2024/03/26 13:42:42;;;;;;;;;;;;;;;;;;5011944;28;20004;-73
2024/03/26 13:45:10;;;;;;;;;;;;;;;;;;4984675;28;20274;-74
2024/03/26 13:47:38;;;;;;;;;;;;;;;;;;4999577;28;20805;-74
2024/03/26 13:50:06;;;;;;;;;;;;;;;;;;5017690;28;20998;-74
2024/03/26 13:52:41;;;;;;;;;;;;;;;;;;5000459;28;19921;-73
2024/03/26 13:55:09;;;;;;;;;;;;;;;;;;5000067;28;20015;-77
2024/03/26 13:57:34;;;;;;;;;;;;;;;;;;4983672;28;19927;-72
2024/03/26 14:00:04;;;;;;;;;;;;;;;;;;4998527;28;19916;-75
2024/03/26 14:02:32;;;;;;;;;;;;;;;;;;4998975;28;20226;-76
2024/03/26 14:04:57;;;;;;;;;;;;;;;;;;5007392;28;21253;-71
2024/03/26 14:07:26;;;;;;;;;;;;;;;;;;5016378;28;19951;-74
2024/03/26 14:09:51;;;;;;;;;;;;;;;;;;5016792;28;19917;-74
2024/03/26 14:12:16;;;;;;;;;;;;;;;;;;5014775;28;20048;-75
2024/03/26 14:14:44;;;;;;;;;;;;;;;;;;4994165;28;19961;-75
2024/03/26 14:17:09;;;;;;;;;;;;;;;;;;4995682;28;19959;-74
2024/03/26 14:19:35;;;;;;;;;;;;;;;;;;4985864;28;20278;-75
2024/03/26 14:22:00;;;;;;;;;;;;;;;;;;4982092;28;19959;-76
2024/03/26 14:24:26;;;;;;;;;;;;;;;;;;4980797;28;20393;-74
2024/03/26 14:26:54;;;;;;;;;;;;;;;;;;5017831;28;19944;-75
2024/03/26 14:29:23;;;;;;;;;;;;;;;;;;5015101;28;19932;-75
2024/03/26 14:31:51;;;;;;;;;;;;;;;;;;5017431;28;19917;-77
2024/03/26 14:34:16;;;;;;;;;;;;;;;;;;4969316;28;19922;-75
2024/03/26 14:36:42;;;;;;;;;;;;;;;;;;4980997;28;19930;-76
2024/03/26 14:39:07;;;;;;;;;;;;;;;;;;4996160;28;19914;-74
2024/03/26 14:41:34;;;;;;;;;;;;;;;;;;4990439;28;19940;-77
2024/03/26 14:43:59;;;;;;;;;;;;;;;;;;4979221;28;20196;-76
2024/03/26 14:46:28;;;;;;;;;;;;;;;;;;4979045;28;19918;-77
2024/03/26 14:48:55;;;;;;;;;;;;;;;;;;4995362;28;19917;-76
2024/03/26 14:51:23;;;;;;;;;;;;;;;;;;4996656;28;20030;-74
2024/03/26 14:53:50;;;;;;;;;;;;;;;;;;4994095;28;19922;-76
2024/03/26 14:56:16;;;;;;;;;;;;;;;;;;4997014;28;20404;-74
2024/03/26 14:58:44;;;;;;;;;;;;;;;;;;4980581;28;20531;-77
2024/03/26 15:01:09;;;;;;;;;;;;;;;;;;4977398;28;20483;-76
2024/03/26 15:03:38;;;;;;;;;;;;;;;;;;4996612;28;19922;-76
2024/03/26 15:06:03;;;;;;;;;;;;;;;;;;4973425;28;21084;-74
2024/03/26 15:08:28;;;;;;;;;;;;;;;;;;4962333;28;20452;-76
2024/03/26 15:10:57;;;;;;;;;;;;;;;;;;4978261;28;19927;-75
2024/03/26 15:13:22;;;;;;;;;;;;;;;;;;4998683;28;19921;-74
2024/03/26 15:15:47;;;;;;;;;;;;;;;;;;4996386;28;20024;-77
2024/03/26 15:18:15;;;;;;;;;;;;;;;;;;4964007;28;19929;-75
2024/03/26 15:23:30;;;;;;;;;;;;;;;;;;4997209;28;19921;-75
2024/03/26 15:25:55;;;;;;;;;;;;;;;;;;4980419;28;19929;-76
2024/03/26 15:33:51;;;;;;;;;;;;;;;;;;4997536;28;19976;-75
2024/03/26 15:36:16;;;;;;;;;;;;;;;;;;4995640;28;19948;-74
2024/03/26 15:38:43;;;;;;;;;;;;;;;;;;4993886;28;19925;-75
2024/03/26 15:41:08;;;;;;;;;;;;;;;;;;4994852;28;19939;-77
2024/03/26 15:43:39;;;;;;;;;;;;;;;;;;4993204;28;21372;-76
2024/03/26 15:46:04;;;;;;;;;;;;;;;;;;4992804;28;20665;-76
2024/03/26 15:48:31;;;;;;;;;;;;;;;;;;4993176;28;19921;-76
2024/03/26 15:50:56;;;;;;;;;;;;;;;;;;4976003;28;19922;-75
2024/03/26 15:53:22;;;;;;;;;;;;;;;;;;4974121;28;19917;-74
2024/03/26 15:55:50;;;;;;;;;;;;;;;;;;4989893;28;20029;-77
2024/03/26 15:58:15;;;;;;;;;;;;;;;;;;4992083;28;20975;-76
2024/03/26 16:00:40;;;;;;;;;;;;;;;;;;4995245;28;19918;-75
2024/03/26 16:06:22;;;;;;;;;;;;;;;;;;4992563;28;19929;-77
2024/03/26 16:08:50;;;;;;;;;;;;;;;;;;4994370;28;19921;-75
2024/03/26 16:11:15;;;;;;;;;;;;;;;;;;4994966;28;19949;-76
2024/03/26 16:13:41;;;;;;;;;;;;;;;;;;4994311;28;19917;-75
2024/03/26 16:16:06;;;;;;;;;;;;;;;;;;4976270;28;20058;-75
2024/03/26 16:18:34;;;;;;;;;;;;;;;;;;4995080;28;20025;-75
2024/03/26 16:20:59;;;;;;;;;;;;;;;;;;4994512;28;19940;-74
2024/03/26 16:23:24;;;;;;;;;;;;;;;;;;4993320;28;20390;-73
2024/03/26 16:25:52;;;;;;;;;;;;;;;;;;4994999;28;19921;-74
2024/03/26 16:28:17;;;;;;;;;;;;;;;;;;4976105;28;20391;-76
2024/03/26 16:30:43;;;;;;;;;;;;;;;;;;4980993;28;19922;-77
2024/03/26 16:33:11;;;;;;;;;;;;;;;;;;4997319;28;19921;-74
2024/03/26 16:35:36;;;;;;;;;;;;;;;;;;5017727;28;19929;-75
2024/03/26 16:38:04;;;;;;;;;;;;;;;;;;4998305;28;19921;-76
2024/03/26 16:40:29;;;;;;;;;;;;;;;;;;5018743;28;19929;-74
2024/03/26 16:42:55;;;;;;;;;;;;;;;;;;4996023;28;19924;-77
2024/03/26 16:45:23;;;;;;;;;;;;;;;;;;5016169;28;21244;-75
2024/03/26 16:47:53;;;;;;;;;;;;;;;;;;5007774;28;19917;-74
2024/03/26 16:50:21;;;;;;;;;;;;;;;;;;5002785;28;19971;-78
2024/03/26 16:52:49;;;;;;;;;;;;;;;;;;5004197;28;19917;-75
2024/03/26 16:55:14;;;;;;;;;;;;;;;;;;5018703;28;19921;-74
2024/03/26 16:57:42;;;;;;;;;;;;;;;;;;5001312;28;20126;-75
2024/03/26 17:00:10;;;;;;;;;;;;;;;;;;5016758;28;20187;-74
2024/03/26 17:02:38;;;;;;;;;;;;;;;;;;5017958;28;19917;-73